createdAt,value
2023-09-05T00:02:49.334Z,101748.16
2023-09-05T00:07:52.249Z,101677.13
2023-09-05T00:12:54.927Z,101737.13
2023-09-05T00:17:59.043Z,101738.03
2023-09-05T00:23:09.924Z,101652.50
2023-09-05T00:28:14.622Z,101680.00
2023-09-05T00:33:18.914Z,101560.09
2023-09-05T00:38:23.822Z,101738.34
2023-09-05T00:43:27.895Z,101700.66
2023-09-05T00:48:38.459Z,101624.94
2023-09-05T00:53:41.687Z,101671.56
2023-09-05T00:58:46.749Z,101670.59
2023-09-05T01:03:52.598Z,101737.72
2023-09-05T01:09:10.005Z,101733.44
2023-09-05T01:14:19.373Z,101730.28
2023-09-05T01:19:29.537Z,101726.16
2023-09-05T01:24:36.840Z,101656.88
2023-09-05T01:29:40.628Z,101723.94
2023-09-05T01:34:47.264Z,101726.72
2023-09-05T01:39:51.706Z,101728.28
2023-09-05T01:44:55.020Z,101721.00
2023-09-05T01:49:57.784Z,101713.00
2023-09-05T01:55:02.067Z,101731.63
2023-09-05T02:00:07.008Z,101722.88
2023-09-05T02:05:16.554Z,101731.50
2023-09-05T02:10:20.636Z,101709.34
2023-09-05T02:15:23.390Z,101731.38
2023-09-05T02:20:27.380Z,101737.47
2023-09-05T02:25:37.544Z,101742.97
2023-09-05T02:30:44.900Z,101735.28
2023-09-05T02:35:47.731Z,101736.38
2023-09-05T02:40:53.100Z,101743.34
2023-09-05T02:45:58.066Z,101748.78
2023-09-05T02:51:05.696Z,101742.72
2023-09-05T02:56:12.840Z,101759.16
2023-09-05T03:01:17.282Z,101745.28
2023-09-05T03:06:20.036Z,101740.28
2023-09-05T03:11:26.683Z,101741.38
2023-09-05T03:16:30.433Z,101661.84
2023-09-05T03:21:33.662Z,101745.38
2023-09-05T03:26:38.031Z,101734.78
2023-09-05T03:31:40.915Z,101697.50
2023-09-05T03:36:46.630Z,101727.91
2023-09-05T03:41:50.739Z,101698.72
2023-09-05T03:46:53.479Z,101667.34
2023-09-05T03:51:59.469Z,101728.13
2023-09-05T03:57:03.866Z,101694.34
2023-09-05T04:02:08.975Z,101728.88
2023-09-05T04:07:15.605Z,101733.75
2023-09-05T04:12:21.004Z,101744.72
2023-09-05T04:17:25.396Z,101729.38
2023-09-05T04:22:29.153Z,101705.78
2023-09-05T04:27:33.219Z,101657.13
2023-09-05T04:32:38.431Z,101732.41
2023-09-05T04:37:41.831Z,101738.88
2023-09-05T04:42:46.085Z,101738.25
2023-09-05T04:47:48.888Z,101736.09
2023-09-05T04:52:52.789Z,101689.97
2023-09-05T04:57:56.857Z,101738.97
2023-09-05T05:03:00.641Z,101676.53
2023-09-05T05:08:03.408Z,101663.41
2023-09-05T05:13:07.473Z,101729.88
2023-09-05T05:18:10.379Z,101758.56
2023-09-05T05:23:14.250Z,101704.44
2023-09-05T05:28:18.503Z,101753.84
2023-09-05T05:33:21.301Z,101718.19
2023-09-05T05:38:24.552Z,101764.06
2023-09-05T05:43:30.425Z,101757.00
2023-09-05T05:48:35.951Z,101752.69
2023-09-05T05:53:39.219Z,101700.38
2023-09-05T05:58:46.515Z,101739.66
2023-09-05T06:03:49.441Z,101764.19
2023-09-05T06:08:52.390Z,101763.03
2023-09-05T06:13:56.518Z,101767.25
2023-09-05T06:19:02.368Z,101772.56
2023-09-05T06:24:05.721Z,101770.66
2023-09-05T06:29:10.878Z,101744.22
2023-09-05T06:34:20.508Z,101776.78
2023-09-05T06:39:23.235Z,101758.59
2023-09-05T06:44:30.433Z,101770.94
2023-09-05T06:49:33.559Z,101773.53
2023-09-05T06:54:36.657Z,101756.44
2023-09-05T06:59:40.769Z,101779.31
2023-09-05T07:04:43.503Z,101778.16
2023-09-05T07:09:47.564Z,101781.19
2023-09-05T07:14:51.958Z,101772.44
2023-09-05T07:19:54.653Z,101726.91
2023-09-05T07:25:00.350Z,101714.88
2023-09-05T07:30:04.848Z,101759.53
2023-09-05T07:35:07.852Z,101762.31
2023-09-05T07:40:12.620Z,101758.91
2023-09-05T07:45:16.920Z,101755.34
2023-09-05T07:50:20.186Z,101746.66
2023-09-05T07:55:23.581Z,101744.38
2023-09-05T08:00:28.088Z,101764.75
2023-09-05T08:05:32.453Z,101760.25
2023-09-05T08:10:35.872Z,101768.88
2023-09-05T08:15:40.204Z,101743.31
2023-09-05T08:20:44.017Z,101759.38
2023-09-05T08:25:51.957Z,101734.88
2023-09-05T08:31:15.728Z,101749.94
2023-09-05T08:36:20.758Z,101739.25
2023-09-05T08:41:23.600Z,101716.72
2023-09-05T08:46:28.500Z,101732.69
2023-09-05T08:51:34.192Z,101719.91
2023-09-05T08:56:36.911Z,101727.81
2023-09-05T09:01:45.086Z,101717.25
2023-09-05T09:06:55.978Z,101727.28
2023-09-05T09:12:01.593Z,101735.34
2023-09-05T09:17:07.665Z,101725.06
2023-09-05T09:22:10.672Z,101727.41
2023-09-05T09:27:13.951Z,101724.53
2023-09-05T09:32:22.079Z,101735.09
2023-09-05T09:37:26.693Z,101733.00
2023-09-05T09:42:30.068Z,101727.00
2023-09-05T09:47:36.312Z,101729.56
2023-09-05T09:52:45.083Z,101697.56
2023-09-05T09:57:57.252Z,101659.63
2023-09-05T10:03:05.259Z,101710.44
2023-09-05T10:08:08.375Z,101720.34
2023-09-05T10:13:11.941Z,101724.44
2023-09-05T10:18:18.646Z,101730.34
2023-09-05T10:23:21.575Z,101704.47
2023-09-05T10:28:29.009Z,101636.28
2023-09-05T10:33:38.712Z,101688.78
2023-09-05T10:38:41.533Z,101711.31
2023-09-05T10:43:56.110Z,101704.38
2023-09-05T10:49:14.108Z,101705.56
2023-09-05T10:54:30.047Z,101629.94
2023-09-05T10:59:32.858Z,101703.88
2023-09-05T11:04:40.034Z,101695.22
2023-09-05T11:09:51.195Z,101673.94
2023-09-05T11:14:55.425Z,101675.25
2023-09-05T11:19:59.691Z,101677.63
2023-09-05T11:25:05.189Z,101665.78
2023-09-05T11:30:11.182Z,101618.22
2023-09-05T11:35:15.679Z,101571.91
2023-09-05T11:40:23.919Z,101634.19
2023-09-05T11:45:26.971Z,101658.50
2023-09-05T11:50:32.948Z,101666.81
2023-09-05T11:55:36.010Z,101659.78
2023-09-05T12:00:45.549Z,101661.69
2023-09-05T12:05:52.618Z,101662.47
2023-09-05T12:11:00.867Z,101655.13
2023-09-05T12:16:04.634Z,101656.16
2023-09-05T12:21:14.534Z,101654.41
2023-09-05T12:26:17.480Z,101642.47
2023-09-05T12:31:22.275Z,101651.16
2023-09-05T12:36:30.614Z,101597.78
2023-09-05T12:41:35.822Z,101633.53
2023-09-05T12:46:39.147Z,101638.63
2023-09-05T12:51:46.648Z,101625.28
2023-09-05T12:57:31.342Z,101319.78
2023-09-05T13:02:48.713Z,101616.16
2023-09-05T13:07:53.417Z,101586.03
2023-09-05T13:13:05.508Z,101614.78
2023-09-05T13:18:09.239Z,101617.38
2023-09-05T13:23:22.999Z,101615.63
2023-09-05T13:28:28.911Z,101562.16
2023-09-05T13:33:43.573Z,101549.00
2023-09-05T13:38:49.348Z,101574.22
2023-09-05T13:43:52.780Z,101558.94
2023-09-05T13:48:55.852Z,101558.81
2023-09-05T13:54:00.753Z,101576.31
2023-09-05T13:59:03.702Z,101579.66
2023-09-05T14:04:12.772Z,101545.84
2023-09-05T14:09:19.491Z,101529.47
2023-09-05T14:14:22.268Z,101559.69
2023-09-05T14:19:26.397Z,101568.50
2023-09-05T14:24:33.367Z,101556.00
2023-09-05T14:29:38.135Z,101533.66
2023-09-05T14:35:03.425Z,101564.53
2023-09-05T14:40:13.787Z,101543.63
2023-09-05T14:45:16.671Z,101522.13
2023-09-05T14:50:19.971Z,101528.72
2023-09-05T14:55:26.832Z,101547.25
2023-09-05T15:00:30.577Z,101550.28
2023-09-05T15:05:33.529Z,101508.75
2023-09-05T15:10:38.607Z,101531.94
2023-09-05T15:15:41.557Z,101528.50
2023-09-05T15:20:51.512Z,101326.16
2023-09-05T15:25:58.296Z,101405.91
2023-09-05T15:31:06.758Z,101451.19
2023-09-05T15:36:10.314Z,101460.78
2023-09-05T15:41:16.931Z,101516.69
2023-09-05T15:46:22.752Z,101507.63
2023-09-05T15:51:26.343Z,101507.03
2023-09-05T15:56:31.073Z,101516.78
2023-09-05T16:01:34.163Z,101518.16
2023-09-05T16:06:37.741Z,101519.59
2023-09-05T16:11:43.178Z,101524.06
2023-09-05T16:16:54.232Z,101369.13
2023-09-05T16:21:57.020Z,101368.06
2023-09-05T16:27:03.485Z,101445.25
2023-09-05T16:32:07.644Z,101462.69
2023-09-05T16:37:19.429Z,101453.38
2023-09-05T16:42:26.402Z,101509.81
2023-09-05T16:47:30.211Z,101486.06
2023-09-05T16:52:32.913Z,101513.06
2023-09-05T16:57:37.287Z,101495.03
2023-09-05T17:02:42.846Z,101375.84
2023-09-05T17:07:48.022Z,101372.66
2023-09-05T17:12:52.471Z,101482.72
2023-09-05T17:17:57.373Z,101436.50
2023-09-05T17:23:00.122Z,101527.31
2023-09-05T17:28:05.209Z,101469.03
2023-09-05T17:33:13.346Z,101538.28
2023-09-05T17:38:18.047Z,101446.84
2023-09-05T17:43:31.038Z,101378.44
2023-09-05T17:49:05.595Z,101537.78
2023-09-05T17:54:18.809Z,101541.66
2023-09-05T17:59:54.904Z,101307.44
2023-09-05T18:05:22.909Z,101269.34
2023-09-05T18:10:33.886Z,101432.41
2023-09-05T18:15:54.200Z,101395.31
2023-09-05T18:21:55.715Z,101468.25
2023-09-05T18:28:38.764Z,101340.06
2023-09-05T18:34:41.441Z,101209.78
2023-09-05T18:45:45.101Z,101170.44
2023-09-05T18:50:51.787Z,101585.09
2023-09-05T18:55:55.678Z,101489.75
2023-09-05T19:00:58.620Z,101557.03
2023-09-05T19:06:07.057Z,101430.44
2023-09-05T19:11:10.813Z,101555.81
2023-09-05T19:16:23.899Z,101580.06
2023-09-05T19:21:32.227Z,101577.50
2023-09-05T19:26:35.605Z,101584.94
2023-09-05T19:31:39.469Z,101508.00
2023-09-05T19:36:47.054Z,101465.28
2023-09-05T19:41:53.778Z,101580.41
2023-09-05T19:46:56.867Z,101240.72
2023-09-05T19:58:38.309Z,101460.63
2023-09-05T20:03:53.715Z,101546.91
2023-09-05T20:09:10.423Z,101570.72
2023-09-05T20:14:42.102Z,101500.34
2023-09-05T20:20:18.382Z,101411.25
2023-09-05T20:26:08.392Z,101207.66
2023-09-05T20:31:29.188Z,101574.06
2023-09-05T20:36:32.415Z,101511.13
2023-09-05T20:41:35.609Z,101523.09
2023-09-05T20:46:41.457Z,101576.75
2023-09-05T20:51:44.332Z,101545.25
2023-09-05T20:57:07.798Z,101577.19
2023-09-05T21:02:27.654Z,101242.22
2023-09-05T21:07:31.938Z,101575.81
2023-09-05T21:12:40.831Z,101605.53
2023-09-05T21:17:54.070Z,101594.53
2023-09-05T21:22:57.343Z,101552.03
2023-09-05T21:28:01.181Z,101583.09
2023-09-05T21:33:05.735Z,101585.50
2023-09-05T21:38:09.005Z,101516.72
2023-09-05T21:50:35.327Z,101573.91
2023-09-05T21:55:38.386Z,101528.66
2023-09-05T22:00:43.618Z,101538.53
2023-09-05T22:05:58.376Z,101392.44
2023-09-05T22:11:01.584Z,101525.00
2023-09-05T22:16:06.648Z,101574.09
2023-09-05T22:21:11.422Z,101580.16
2023-09-05T22:26:15.339Z,101600.81
2023-09-05T22:31:18.340Z,101431.66
2023-09-05T22:36:24.126Z,101506.69
2023-09-05T22:41:26.863Z,101629.97
2023-09-05T22:46:29.733Z,101593.97
2023-09-05T22:51:34.058Z,101623.59
2023-09-05T22:56:46.425Z,101469.31
2023-09-05T23:01:49.229Z,101461.59
2023-09-05T23:06:56.924Z,101624.53
2023-09-05T23:11:59.701Z,101622.59
2023-09-05T23:17:05.367Z,101630.28
2023-09-05T23:22:10.531Z,101492.81
2023-09-05T23:27:13.437Z,101624.66
2023-09-05T23:32:18.390Z,101609.31
2023-09-05T23:37:22.607Z,101591.63
2023-09-05T23:42:27.317Z,101541.28
2023-09-05T23:47:30.128Z,101625.16
2023-09-05T23:52:34.691Z,101646.25
2023-09-05T23:57:38.237Z,101355.03
